Time;durP1;ratioP1;P1;durP2;ratioP2;P2;SDS_P1;SDS_P2;PMS_P1;PMS_P2;Temp;Humidity;BMP_temperature;BMP_pressure;BME280_temperature;BME280_humidity;BME280_pressure;Samples;Min_cycle;Max_cycle;Signal;HPM_P1;HPM_P2
2023/07/26 00:01:10;;;;;;;11.63;10.30;;;20.10;68.40;;;;;;5052810;28;20197;-49
2023/07/26 00:03:36;;;;;;;12.90;11.67;;;20.10;68.30;;;;;;5053615;28;20203;-45
2023/07/26 00:06:01;;;;;;;13.20;11.53;;;20.10;68.40;;;;;;5053347;28;20339;-45
2023/07/26 00:08:27;;;;;;;13.17;11.90;;;20.10;68.40;;;;;;5053864;28;20188;-44
2023/07/26 00:10:53;;;;;;;15.50;13.83;;;20.10;68.50;;;;;;5052782;28;20439;-49
2023/07/26 00:13:18;;;;;;;13.77;12.57;;;20.10;68.50;;;;;;5053308;28;20189;-48
2023/07/26 00:15:44;;;;;;;15.00;13.53;;;20.10;68.20;;;;;;5052578;28;20192;-47
2023/07/26 00:18:09;;;;;;;15.37;13.77;;;20.00;68.50;;;;;;5053347;28;20251;-45
2023/07/26 00:20:35;;;;;;;14.13;12.83;;;20.10;68.30;;;;;;5050749;28;20650;-46
2023/07/26 00:23:02;;;;;;;14.27;12.87;;;20.00;68.50;;;;;;5053545;28;20204;-49
2023/07/26 00:25:28;;;;;;;16.27;14.17;;;20.10;68.40;;;;;;5052515;28;20423;-46
2023/07/26 00:27:53;;;;;;;14.90;13.47;;;20.10;68.20;;;;;;5053141;28;20430;-44
2023/07/26 00:30:19;;;;;;;14.27;12.83;;;20.10;68.20;;;;;;5052253;28;20198;-48
2023/07/26 00:32:45;;;;;;;16.10;13.63;;;20.20;68.40;;;;;;5053084;28;20197;-48
2023/07/26 00:35:24;;;;;;;14.43;13.00;;;20.20;68.40;;;;;;5052642;28;20189;-47
2023/07/26 00:37:50;;;;;;;15.50;13.10;;;20.20;68.50;;;;;;5052648;28;20664;-45
2023/07/26 00:40:15;;;;;;;15.23;13.67;;;20.20;68.50;;;;;;5051994;28;20419;-47
2023/07/26 00:42:41;;;;;;;15.13;12.60;;;20.20;68.50;;;;;;5052865;28;20507;-46
2023/07/26 00:45:07;;;;;;;16.90;13.07;;;20.10;68.50;;;;;;5052315;28;20219;-45
2023/07/26 00:47:32;;;;;;;15.80;14.20;;;20.10;68.70;;;;;;5051038;28;20246;-46
2023/07/26 00:49:58;;;;;;;16.50;14.80;;;20.10;68.80;;;;;;5051698;28;20189;-50
2023/07/26 00:52:25;;;;;;;16.03;14.53;;;20.10;68.90;;;;;;5052585;28;20624;-49
2023/07/26 00:54:52;;;;;;;15.80;13.97;;;20.10;69.10;;;;;;5051676;28;20192;-44
2023/07/26 00:57:17;;;;;;;15.20;13.70;;;20.20;69.20;;;;;;5052601;28;20476;-47
2023/07/26 00:59:43;;;;;;;19.53;15.13;;;20.20;69.20;;;;;;5052306;28;20427;-44
2023/07/26 01:02:09;;;;;;;16.93;15.37;;;20.10;69.30;;;;;;5052069;28;20195;-45
2023/07/26 01:04:34;;;;;;;16.47;14.97;;;20.20;69.30;;;;;;5052490;28;20473;-44
2023/07/26 01:07:11;;;;;;;14.87;13.57;;;20.20;69.30;;;;;;5051975;28;20644;-44
2023/07/26 01:09:48;;;;;;;16.77;14.80;;;20.20;69.30;;;;;;5052459;28;20621;-44
2023/07/26 01:12:21;;;;;;;16.97;15.27;;;20.10;69.40;;;;;;5052270;28;20935;-46
2023/07/26 01:14:56;;;;;;;16.53;14.77;;;20.20;69.70;;;;;;5049899;28;20478;-44
2023/07/26 01:17:21;;;;;;;18.57;15.80;;;20.20;69.70;;;;;;5052005;28;20503;-44
2023/07/26 01:19:47;;;;;;;16.77;15.17;;;20.10;69.60;;;;;;5051305;28;21053;-46
2023/07/26 01:22:12;;;;;;;17.27;15.57;;;20.20;69.70;;;;;;5051962;28;20573;-45
2023/07/26 01:24:38;;;;;;;16.70;14.97;;;20.20;69.70;;;;;;5051659;28;20188;-44
2023/07/26 01:27:04;;;;;;;16.60;14.90;;;20.20;69.60;;;;;;5051625;28;20275;-44
2023/07/26 01:29:30;;;;;;;17.23;15.50;;;20.20;69.50;;;;;;5051981;28;20660;-45
2023/07/26 01:31:56;;;;;;;16.53;15.00;;;20.20;69.40;;;;;;5051004;28;20431;-45
2023/07/26 01:34:22;;;;;;;16.43;15.00;;;20.20;69.60;;;;;;5051744;28;20628;-44
2023/07/26 01:36:49;;;;;;;16.20;14.73;;;20.20;69.50;;;;;;5051048;28;20476;-46
2023/07/26 01:39:15;;;;;;;16.20;14.70;;;20.20;69.30;;;;;;5051794;28;20498;-44
2023/07/26 01:41:41;;;;;;;14.80;12.20;;;20.20;69.10;;;;;;5049033;28;20430;-43
2023/07/26 01:44:07;;;;;;;14.90;13.47;;;20.20;69.10;;;;;;5051634;28;20486;-44
2023/07/26 01:46:32;;;;;;;15.80;14.27;;;20.20;68.80;;;;;;5050880;28;20208;-46
2023/07/26 01:48:58;;;;;;;12.40;11.17;;;20.10;68.40;;;;;;5051869;28;20922;-45
2023/07/26 01:51:24;;;;;;;13.20;11.90;;;20.10;68.70;;;;;;5050938;28;20538;-49
2023/07/26 01:53:49;;;;;;;12.73;11.53;;;20.10;68.50;;;;;;5051555;28;20280;-44
2023/07/26 01:56:15;;;;;;;13.13;11.73;;;20.20;68.30;;;;;;5051117;28;20192;-44
2023/07/26 01:58:40;;;;;;;12.23;11.00;;;20.20;68.10;;;;;;5051484;28;20636;-44
2023/07/26 02:01:06;;;;;;;12.10;10.97;;;20.20;67.80;;;;;;5050217;28;20192;-45
2023/07/26 02:03:31;;;;;;;11.00;9.93;;;20.20;67.70;;;;;;5051442;28;20656;-44
2023/07/26 02:05:57;;;;;;;10.60;9.23;;;20.10;67.20;;;;;;5050371;28;20181;-46
2023/07/26 02:08:23;;;;;;;9.43;8.53;;;20.20;67.20;;;;;;5049583;28;20196;-44
2023/07/26 02:10:48;;;;;;;9.63;8.70;;;20.20;67.10;;;;;;5050164;28;20196;-44
2023/07/26 02:13:14;;;;;;;12.17;9.47;;;20.20;66.90;;;;;;5050991;28;20188;-47
2023/07/26 02:15:40;;;;;;;10.47;9.40;;;20.20;66.70;;;;;;5050504;28;20185;-47
2023/07/26 02:18:06;;;;;;;10.03;9.03;;;20.20;66.60;;;;;;5050948;28;20223;-44
2023/07/26 02:20:32;;;;;;;11.87;8.60;;;20.20;66.60;;;;;;5050580;28;20931;-44
2023/07/26 02:22:59;;;;;;;9.00;8.10;;;20.10;66.40;;;;;;5051204;28;20431;-46
2023/07/26 02:25:24;;;;;;;7.83;7.20;;;20.10;66.20;;;;;;5050691;28;20481;-44
2023/07/26 02:27:50;;;;;;;10.00;8.23;;;20.10;65.90;;;;;;5051137;28;20439;-44
2023/07/26 02:30:16;;;;;;;10.93;8.60;;;20.10;65.80;;;;;;5049988;28;20189;-47
2023/07/26 02:32:42;;;;;;;8.87;8.13;;;20.10;65.90;;;;;;5051021;28;20930;-44
2023/07/26 02:35:08;;;;;;;7.70;7.10;;;20.10;65.70;;;;;;5048944;28;20192;-43
2023/07/26 02:37:34;;;;;;;9.03;6.47;;;20.10;65.40;;;;;;5050974;28;20228;-43
2023/07/26 02:39:59;;;;;;;8.07;7.37;;;20.10;65.10;;;;;;5049961;28;20431;-45
2023/07/26 02:42:26;;;;;;;8.13;7.40;;;20.10;64.90;;;;;;5051068;28;20238;-44
2023/07/26 02:44:54;;;;;;;11.07;7.23;;;20.10;64.80;;;;;;5050314;28;20185;-44
2023/07/26 02:47:20;;;;;;;10.63;7.80;;;20.00;64.80;;;;;;5050985;28;20431;-45
2023/07/26 02:49:45;;;;;;;8.30;7.57;;;20.00;65.10;;;;;;5049767;28;20420;-44
2023/07/26 02:52:11;;;;;;;9.27;8.33;;;20.00;65.40;;;;;;5050955;28;20193;-45
2023/07/26 02:54:36;;;;;;;9.03;8.23;;;20.00;65.80;;;;;;5050767;28;20626;-44
2023/07/26 02:57:02;;;;;;;7.80;7.10;;;20.00;66.20;;;;;;5050133;28;20184;-44
2023/07/26 02:59:28;;;;;;;7.20;6.47;;;20.00;66.40;;;;;;5050419;28;20273;-44
2023/07/26 03:01:54;;;;;;;7.57;6.77;;;20.00;66.20;;;;;;5048376;28;20197;-44
2023/07/26 03:04:19;;;;;;;6.40;5.80;;;20.00;65.80;;;;;;5050924;28;20201;-44
2023/07/26 03:06:45;;;;;;;6.33;5.53;;;19.90;65.20;;;;;;5050132;28;20419;-43
2023/07/26 03:09:11;;;;;;;5.70;4.90;;;19.80;64.00;;;;;;5050422;28;20193;-46
2023/07/26 03:11:36;;;;;;;6.33;5.80;;;19.80;63.80;;;;;;5049649;28;20188;-44
2023/07/26 03:14:02;;;;;;;8.47;5.70;;;19.90;63.70;;;;;;5050504;28;20688;-44
2023/07/26 03:16:28;;;;;;;6.93;5.53;;;19.90;63.60;;;;;;5052223;28;20196;-44
2023/07/26 03:18:54;;;;;;;7.07;6.57;;;19.90;63.70;;;;;;5054189;28;20224;-45
2023/07/26 03:21:19;;;;;;;6.37;5.87;;;19.90;64.30;;;;;;5053336;28;20648;-44
2023/07/26 03:23:45;;;;;;;6.70;5.13;;;19.90;64.70;;;;;;5054388;28;20430;-44
2023/07/26 03:26:11;;;;;;;6.37;5.87;;;19.90;65.00;;;;;;5053849;28;20189;-44
2023/07/26 03:28:36;;;;;;;6.70;5.93;;;19.90;65.10;;;;;;5052180;28;20196;-45
2023/07/26 03:31:02;;;;;;;6.47;5.97;;;19.80;65.00;;;;;;5053200;28;20254;-44
2023/07/26 03:33:27;;;;;;;7.10;6.40;;;19.80;65.30;;;;;;5054256;28;20216;-48
2023/07/26 03:35:53;;;;;;;6.13;5.63;;;19.80;65.30;;;;;;5053738;28;20719;-44
2023/07/26 03:38:19;;;;;;;7.00;6.47;;;19.70;65.20;;;;;;5054049;28;20691;-45
2023/07/26 03:40:44;;;;;;;6.60;5.93;;;19.70;65.00;;;;;;5053049;28;20263;-44
2023/07/26 03:43:10;;;;;;;6.80;6.10;;;19.70;64.70;;;;;;5053937;28;20285;-45
2023/07/26 03:45:36;;;;;;;8.67;6.43;;;19.60;64.50;;;;;;5053237;28;20196;-44
2023/07/26 03:48:02;;;;;;;8.33;6.03;;;19.60;64.70;;;;;;5053894;28;20200;-44
2023/07/26 03:50:28;;;;;;;6.33;5.73;;;19.60;64.70;;;;;;5052750;28;20425;-44
2023/07/26 03:52:53;;;;;;;6.13;5.53;;;19.50;64.80;;;;;;5053701;28;20661;-44
2023/07/26 03:55:19;;;;;;;7.93;6.80;;;19.50;64.80;;;;;;5051963;28;20560;-45
2023/07/26 03:57:44;;;;;;;10.07;6.73;;;19.50;65.00;;;;;;5053103;28;20228;-44
2023/07/26 04:00:11;;;;;;;7.67;5.87;;;19.50;64.80;;;;;;5052828;28;20192;-44
2023/07/26 04:02:36;;;;;;;6.90;6.17;;;19.50;65.80;;;;;;5053357;28;20184;-43
2023/07/26 04:05:02;;;;;;;7.83;6.00;;;19.50;65.10;;;;;;5052956;28;20810;-45
2023/07/26 04:07:27;;;;;;;6.80;6.20;;;19.50;65.10;;;;;;5053411;28;20275;-46
2023/07/26 04:09:53;;;;;;;7.47;5.90;;;19.50;65.40;;;;;;5052558;28;20193;-44
2023/07/26 04:12:19;;;;;;;6.13;5.53;;;19.50;65.50;;;;;;5053324;28;20180;-44
2023/07/26 04:14:44;;;;;;;8.13;6.63;;;19.40;65.40;;;;;;5052936;28;20769;-44
2023/07/26 04:17:10;;;;;;;6.30;5.77;;;19.40;65.30;;;;;;5052821;28;20220;-44
2023/07/26 04:19:35;;;;;;;6.90;5.90;;;19.40;65.20;;;;;;5052554;28;20311;-44
2023/07/26 04:22:01;;;;;;;6.83;6.10;;;19.40;65.40;;;;;;5052330;28;20196;-44
2023/07/26 04:24:27;;;;;;;6.73;6.07;;;19.40;65.40;;;;;;5052134;28;20779;-44
2023/07/26 04:26:52;;;;;;;9.97;6.43;;;19.40;65.60;;;;;;5051898;28;20201;-44
2023/07/26 04:29:18;;;;;;;7.13;6.50;;;19.40;65.70;;;;;;5052730;28;20569;-45
2023/07/26 04:31:44;;;;;;;8.50;7.30;;;19.40;65.80;;;;;;5052122;28;20552;-44
2023/07/26 04:34:10;;;;;;;7.93;7.13;;;19.40;65.70;;;;;;5052857;28;20192;-43
2023/07/26 04:36:35;;;;;;;7.87;6.90;;;19.40;65.80;;;;;;5052324;28;20203;-44
2023/07/26 04:39:01;;;;;;;7.70;7.00;;;19.40;66.10;;;;;;5052778;28;20955;-44
2023/07/26 04:41:26;;;;;;;7.40;6.63;;;19.50;66.40;;;;;;5052071;28;20219;-44
2023/07/26 04:43:52;;;;;;;7.40;6.77;;;19.50;66.70;;;;;;5052786;28;20193;-44
2023/07/26 04:46:17;;;;;;;7.57;6.87;;;19.40;67.60;;;;;;5052142;28;20199;-44
2023/07/26 04:48:43;;;;;;;8.17;7.33;;;19.40;67.00;;;;;;5052720;28;20192;-43
2023/07/26 04:51:10;;;;;;;8.60;6.60;;;19.30;67.10;;;;;;5049766;28;20189;-44
2023/07/26 04:53:36;;;;;;;13.07;7.23;;;19.30;67.70;;;;;;5052324;28;20235;-44
2023/07/26 04:56:02;;;;;;;7.20;6.50;;;19.10;68.60;;;;;;5052229;28;20784;-44
2023/07/26 04:58:27;;;;;;;8.50;6.43;;;19.20;69.00;;;;;;5052726;28;20227;-46
2023/07/26 05:00:53;;;;;;;7.33;6.63;;;19.30;68.90;;;;;;5051503;28;20188;-43
2023/07/26 05:03:18;;;;;;;8.37;6.73;;;19.30;68.60;;;;;;5052573;28;20267;-44
2023/07/26 05:05:51;;;;;;;7.57;6.97;;;19.40;68.50;;;;;;5051694;28;20640;-44
2023/07/26 05:08:19;;;;;;;7.37;6.77;;;19.40;68.40;;;;;;5052723;28;20703;-44
2023/07/26 05:10:51;;;;;;;7.77;7.07;;;19.50;68.20;;;;;;5051452;28;20446;-44
2023/07/26 05:13:17;;;;;;;7.70;7.00;;;19.60;68.20;;;;;;5052131;28;20427;-44
2023/07/26 05:15:42;;;;;;;8.13;7.43;;;19.60;68.20;;;;;;5051370;28;20423;-44
2023/07/26 05:18:08;;;;;;;8.17;7.37;;;19.70;67.90;;;;;;5050441;28;20973;-44
2023/07/26 05:20:34;;;;;;;8.00;6.37;;;19.70;67.80;;;;;;5050966;28;20643;-44
2023/07/26 05:22:59;;;;;;;7.40;5.83;;;19.70;67.90;;;;;;5052106;28;20188;-45
2023/07/26 05:25:25;;;;;;;7.23;6.63;;;19.70;67.30;;;;;;5051761;28;20629;-43
2023/07/26 05:27:50;;;;;;;6.40;5.80;;;19.70;66.60;;;;;;5051881;28;20192;-44
2023/07/26 05:30:19;;;;;;;6.80;5.93;;;19.80;66.30;;;;;;5050816;28;20547;-44
2023/07/26 05:32:45;;;;;;;10.20;6.87;;;19.80;66.00;;;;;;5052197;28;20275;-44
2023/07/26 05:35:12;;;;;;;7.23;6.60;;;19.90;66.20;;;;;;5051211;28;20538;-47
2023/07/26 05:37:37;;;;;;;6.80;6.20;;;19.90;66.00;;;;;;5051881;28;20611;-49
2023/07/26 05:40:05;;;;;;;7.57;6.23;;;19.90;65.80;;;;;;5049754;28;20502;-47
2023/07/26 05:42:34;;;;;;;7.40;6.00;;;20.00;65.80;;;;;;5051902;28;20275;-47
2023/07/26 05:45:00;;;;;;;6.80;6.20;;;20.00;65.70;;;;;;5049172;28;20442;-49
2023/07/26 05:47:26;;;;;;;8.77;6.60;;;19.90;65.50;;;;;;5051735;28;20419;-49
2023/07/26 05:49:51;;;;;;;6.20;5.57;;;20.00;66.40;;;;;;5050810;28;20330;-48
2023/07/26 05:52:17;;;;;;;7.13;6.43;;;20.00;65.10;;;;;;5050290;28;20652;-49
2023/07/26 05:54:43;;;;;;;6.63;6.00;;;20.00;64.90;;;;;;5050968;28;20199;-48
2023/07/26 05:57:08;;;;;;;6.00;5.50;;;20.00;64.70;;;;;;5051341;28;20423;-48
2023/07/26 05:59:34;;;;;;;5.73;5.30;;;20.00;64.10;;;;;;5051193;28;20251;-49
2023/07/26 06:02:00;;;;;;;5.90;5.30;;;20.10;64.00;;;;;;5051099;28;20273;-49
2023/07/26 06:04:28;;;;;;;5.90;5.40;;;20.00;63.30;;;;;;5051366;28;20250;-47
2023/07/26 06:06:55;;;;;;;5.80;5.30;;;20.00;63.20;;;;;;5050997;28;20523;-47
2023/07/26 06:09:21;;;;;;;6.00;5.50;;;20.10;63.20;;;;;;5050878;28;20434;-49
2023/07/26 06:11:47;;;;;;;4.80;4.43;;;20.10;63.20;;;;;;5049300;28;20534;-48
2023/07/26 06:14:12;;;;;;;5.57;4.90;;;20.10;62.80;;;;;;5051021;28;20228;-49
2023/07/26 06:16:38;;;;;;;5.50;5.07;;;20.10;62.10;;;;;;5050377;28;20203;-48
2023/07/26 06:19:03;;;;;;;5.33;4.80;;;20.20;62.30;;;;;;5051178;28;20220;-48
2023/07/26 06:21:29;;;;;;;7.10;4.97;;;20.20;62.30;;;;;;5050181;28;20206;-49
2023/07/26 06:23:54;;;;;;;5.97;4.77;;;20.30;62.00;;;;;;5051215;28;20192;-46
2023/07/26 06:26:20;;;;;;;5.23;4.60;;;20.30;61.70;;;;;;5050717;28;20197;-47
2023/07/26 06:28:46;;;;;;;6.83;5.40;;;20.40;61.80;;;;;;5051166;28;20555;-47
2023/07/26 06:31:12;;;;;;;5.13;4.63;;;20.40;61.10;;;;;;5050120;28;20438;-48
2023/07/26 06:33:37;;;;;;;5.10;4.60;;;20.50;61.10;;;;;;5051094;28;20652;-46
2023/07/26 06:36:03;;;;;;;8.20;4.37;;;20.50;60.20;;;;;;5050859;28;20192;-49
2023/07/26 06:38:28;;;;;;;6.27;4.77;;;20.60;60.10;;;;;;5049462;28;20224;-48
2023/07/26 06:40:54;;;;;;;5.30;4.80;;;20.50;59.20;;;;;;5050192;28;20192;-45
2023/07/26 06:43:20;;;;;;;8.90;4.80;;;20.50;59.50;;;;;;5050904;28;20679;-45
2023/07/26 06:45:47;;;;;;;5.20;4.60;;;20.60;59.70;;;;;;5050411;28;20645;-46
2023/07/26 06:48:13;;;;;;;4.77;4.37;;;20.70;60.00;;;;;;5050833;28;20220;-47
2023/07/26 06:50:39;;;;;;;6.03;5.00;;;20.80;60.40;;;;;;5051075;28;20775;-44
2023/07/26 06:53:05;;;;;;;4.87;4.20;;;20.90;60.40;;;;;;5054958;28;20422;-49
2023/07/26 06:55:32;;;;;;;8.07;4.17;;;21.00;59.40;;;;;;5054314;28;20911;-49
2023/07/26 06:57:58;;;;;;;6.53;4.53;;;21.00;58.80;;;;;;5054719;28;20551;-48
2023/07/26 07:00:23;;;;;;;5.57;5.07;;;20.90;59.30;;;;;;5054031;28;20425;-46
2023/07/26 07:02:56;;;;;;;5.00;4.10;;;20.80;58.90;;;;;;5035070;28;20189;-48
2023/07/26 07:05:23;;;;;;;4.83;4.43;;;20.70;59.30;;;;;;5032784;28;20294;-48
2023/07/26 07:07:48;;;;;;;4.37;3.97;;;20.80;59.50;;;;;;5034826;28;20427;-45
2023/07/26 07:10:14;;;;;;;4.57;4.17;;;20.90;59.40;;;;;;5033448;28;20434;-46
2023/07/26 07:12:40;;;;;;;7.63;4.70;;;21.00;59.40;;;;;;5046150;28;20601;-45
2023/07/26 07:15:06;;;;;;;4.27;3.90;;;21.00;59.50;;;;;;5053744;28;20272;-50
2023/07/26 07:17:32;;;;;;;4.53;4.13;;;21.00;59.10;;;;;;5054371;28;20196;-45
2023/07/26 07:19:57;;;;;;;7.87;3.73;;;20.60;58.80;;;;;;5053263;28;20488;-45
2023/07/26 07:22:25;;;;;;;5.10;4.03;;;20.40;59.70;;;;;;5054731;28;20284;-49
2023/07/26 07:24:53;;;;;;;4.30;3.57;;;20.20;60.40;;;;;;5053583;28;20279;-44
2023/07/26 07:27:22;;;;;;;5.67;3.83;;;20.20;62.00;;;;;;5054023;28;20484;-45
2023/07/26 07:29:48;;;;;;;5.53;5.00;;;20.00;62.50;;;;;;5053292;28;20484;-44
2023/07/26 07:32:13;;;;;;;4.40;3.90;;;20.00;62.80;;;;;;5052738;28;20430;-44
2023/07/26 07:34:39;;;;;;;6.70;3.60;;;19.80;63.30;;;;;;5053767;28;20197;-44
2023/07/26 07:37:05;;;;;;;6.33;4.00;;;19.80;63.80;;;;;;5053686;28;20208;-45
2023/07/26 07:39:32;;;;;;;8.30;4.50;;;19.80;63.50;;;;;;5053752;28;20302;-45
2023/07/26 07:41:58;;;;;;;4.20;3.80;;;19.70;63.90;;;;;;5053378;28;20192;-45
2023/07/26 07:44:24;;;;;;;7.10;4.10;;;19.80;63.40;;;;;;5053573;28;20507;-45
2023/07/26 07:46:49;;;;;;;4.60;4.30;;;19.50;64.10;;;;;;5053167;28;20420;-44
2023/07/26 07:49:15;;;;;;;4.63;4.27;;;19.60;64.70;;;;;;5053045;28;20457;-44
2023/07/26 07:51:41;;;;;;;4.83;4.43;;;19.80;64.50;;;;;;5052994;28;20199;-45
2023/07/26 07:54:07;;;;;;;4.93;4.03;;;19.80;64.00;;;;;;5053724;28;20195;-46
2023/07/26 07:56:32;;;;;;;4.17;3.87;;;19.70;63.90;;;;;;5053170;28;20200;-45
2023/07/26 07:58:58;;;;;;;4.93;3.30;;;19.60;64.00;;;;;;5051968;28;20470;-45
2023/07/26 08:01:24;;;;;;;4.37;3.97;;;19.40;64.60;;;;;;5053166;28;20679;-48
2023/07/26 08:03:49;;;;;;;3.83;3.53;;;19.50;64.80;;;;;;5052282;28;20192;-45
2023/07/26 08:06:15;;;;;;;5.37;4.80;;;19.80;64.70;;;;;;5052886;28;20193;-45
2023/07/26 08:08:40;;;;;;;5.10;4.20;;;20.00;64.40;;;;;;5053557;28;20189;-48
2023/07/26 08:11:06;;;;;;;6.40;4.23;;;20.10;64.10;;;;;;5052797;28;20261;-49
2023/07/26 08:13:33;;;;;;;4.27;3.97;;;20.20;63.90;;;;;;5053040;28;21640;-44
2023/07/26 08:15:59;;;;;;;6.63;3.80;;;20.40;63.60;;;;;;5052777;28;20918;-48
2023/07/26 08:18:25;;;;;;;4.30;4.00;;;20.30;63.00;;;;;;5053451;28;20515;-48
2023/07/26 08:20:50;;;;;;;4.73;3.67;;;20.20;63.00;;;;;;5052341;28;20514;-49
2023/07/26 08:23:16;;;;;;;4.10;3.80;;;20.30;63.50;;;;;;5053018;28;20558;-44
2023/07/26 08:25:41;;;;;;;4.33;3.90;;;20.30;63.40;;;;;;5051068;28;20204;-46
2023/07/26 08:28:07;;;;;;;7.20;3.77;;;20.40;63.30;;;;;;5052706;28;20271;-48
2023/07/26 08:30:33;;;;;;;3.73;3.43;;;20.40;63.40;;;;;;5052059;28;20559;-46
2023/07/26 08:32:58;;;;;;;4.37;3.93;;;20.40;63.00;;;;;;5053117;28;20207;-45
2023/07/26 08:35:24;;;;;;;4.70;4.30;;;20.50;63.40;;;;;;5052594;28;20189;-45
2023/07/26 08:37:50;;;;;;;4.90;4.37;;;20.50;63.20;;;;;;5053058;28;20213;-47
2023/07/26 08:40:16;;;;;;;4.60;4.30;;;20.60;62.80;;;;;;5051878;28;20473;-49
2023/07/26 08:42:42;;;;;;;4.37;3.97;;;20.70;62.80;;;;;;5052750;28;20193;-44
2023/07/26 08:45:09;;;;;;;6.00;4.40;;;20.70;62.50;;;;;;5052186;28;20191;-45
2023/07/26 08:47:35;;;;;;;6.73;3.80;;;20.70;62.30;;;;;;5052405;28;20585;-46
2023/07/26 08:50:03;;;;;;;5.23;4.10;;;20.80;62.20;;;;;;5051693;28;20527;-44
2023/07/26 08:52:29;;;;;;;6.10;3.67;;;20.80;62.30;;;;;;5051030;28;20953;-44
2023/07/26 08:54:55;;;;;;;3.87;3.57;;;20.70;61.50;;;;;;5052029;28;20522;-44
2023/07/26 08:57:21;;;;;;;3.10;2.80;;;20.40;59.40;;;;;;5052498;28;20513;-44
2023/07/26 08:59:47;;;;;;;3.13;2.77;;;20.20;59.20;;;;;;5051272;28;21169;-44
2023/07/26 09:02:15;;;;;;;3.00;2.57;;;20.10;59.00;;;;;;5052569;28;20434;-47
2023/07/26 09:04:41;;;;;;;5.30;3.13;;;20.10;58.90;;;;;;5052471;28;20193;-45
2023/07/26 09:07:07;;;;;;;8.33;3.40;;;20.20;58.60;;;;;;5051928;28;20895;-44
2023/07/26 09:09:34;;;;;;;3.67;2.90;;;20.30;58.60;;;;;;5051682;28;20282;-44
2023/07/26 09:12:00;;;;;;;4.13;3.07;;;20.10;58.40;;;;;;5051743;28;20629;-48
2023/07/26 09:14:27;;;;;;;2.67;2.47;;;20.20;58.70;;;;;;5052041;28;20486;-45
2023/07/26 09:16:57;;;;;;;3.50;3.00;;;20.30;58.40;;;;;;5051834;28;20502;-44
2023/07/26 09:19:29;;;;;;;4.10;2.40;;;20.20;58.40;;;;;;5050056;28;21003;-46
2023/07/26 09:21:59;;;;;;;2.30;2.20;;;20.10;58.30;;;;;;5051473;28;21029;-44
2023/07/26 09:24:34;;;;;;;5.50;2.63;;;20.20;58.00;;;;;;5052235;28;20785;-44
2023/07/26 09:27:08;;;;;;;2.17;2.07;;;20.20;58.30;;;;;;5051183;28;20434;-44
2023/07/26 09:29:35;;;;;;;4.20;2.33;;;20.00;57.60;;;;;;5051422;28;20427;-44
2023/07/26 09:32:01;;;;;;;2.10;1.90;;;20.20;57.70;;;;;;5051224;28;20435;-47
2023/07/26 09:34:29;;;;;;;4.23;2.13;;;20.10;56.90;;;;;;5052113;28;20427;-46
2023/07/26 09:36:56;;;;;;;2.97;1.93;;;20.20;57.10;;;;;;5051478;28;20427;-45
2023/07/26 09:39:26;;;;;;;2.40;1.80;;;20.40;56.70;;;;;;5051327;28;20483;-44
2023/07/26 09:42:08;;;;;;;2.13;1.60;;;20.60;55.90;;;;;;5031676;28;20519;-45
2023/07/26 09:44:35;;;;;;;2.70;1.63;;;20.50;56.60;;;;;;5031681;28;20440;-45
2023/07/26 09:47:01;;;;;;;1.97;1.73;;;20.50;56.40;;;;;;5029532;28;20447;-44
2023/07/26 09:49:27;;;;;;;1.43;1.27;;;20.70;56.30;;;;;;5034684;28;20423;-44
2023/07/26 09:51:58;;;;;;;1.60;1.30;;;20.60;55.50;;;;;;5051006;28;20656;-48
2023/07/26 09:54:33;;;;;;;1.40;1.30;;;20.50;55.60;;;;;;5051571;28;20505;-46
2023/07/26 09:56:59;;;;;;;1.43;1.30;;;20.60;55.70;;;;;;5050973;28;20427;-45
2023/07/26 09:59:28;;;;;;;2.00;1.53;;;20.50;55.30;;;;;;5050607;28;20603;-50
2023/07/26 10:01:55;;;;;;;1.30;1.20;;;20.40;55.90;;;;;;5051000;28;20561;-49
2023/07/26 10:04:54;;;;;;;1.90;1.30;;;20.50;55.80;;;;;;5051270;28;20826;-44
2023/07/26 10:07:23;;;;;;;1.20;1.10;;;20.40;55.60;;;;;;5050987;28;20450;-44
2023/07/26 10:09:52;;;;;;;3.63;1.43;;;20.10;56.20;;;;;;5050350;28;20423;-44
2023/07/26 10:12:23;;;;;;;1.40;1.30;;;19.90;56.50;;;;;;5049726;28;20512;-45
2023/07/26 10:14:49;;;;;;;1.97;1.47;;;20.00;57.90;;;;;;5050513;28;20470;-45
2023/07/26 10:17:16;;;;;;;2.13;1.40;;;19.50;58.10;;;;;;5050863;28;20473;-44
2023/07/26 10:19:46;;;;;;;2.00;1.57;;;19.60;60.30;;;;;;5050666;28;20570;-44
2023/07/26 10:22:13;;;;;;;3.03;1.30;;;19.80;61.30;;;;;;5051191;28;20427;-46
2023/07/26 10:24:42;;;;;;;1.90;1.70;;;20.10;62.00;;;;;;5051497;28;20483;-45
2023/07/26 10:27:09;;;;;;;1.53;1.43;;;20.10;59.80;;;;;;5057048;28;20510;-44
2023/07/26 10:29:35;;;;;;;1.57;1.30;;;20.00;60.40;;;;;;5057304;28;20427;-44
2023/07/26 10:32:04;;;;;;;1.27;1.17;;;20.30;60.70;;;;;;5057124;28;20469;-44
2023/07/26 10:34:30;;;;;;;1.70;1.57;;;20.30;60.40;;;;;;5057946;28;20561;-44
2023/07/26 10:36:56;;;;;;;1.90;1.50;;;20.40;60.80;;;;;;5055949;28;21013;-44
2023/07/26 10:39:34;;;;;;;1.80;1.70;;;20.50;60.70;;;;;;5055761;28;20232;-44
2023/07/26 10:42:02;;;;;;;3.00;1.97;;;20.70;59.80;;;;;;5056878;28;20275;-45
2023/07/26 10:44:28;;;;;;;1.53;1.43;;;20.80;59.10;;;;;;5057564;28;20415;-45
2023/07/26 10:47:11;;;;;;;1.97;1.80;;;20.90;59.00;;;;;;5057001;28;20426;-48
2023/07/26 10:49:37;;;;;;;2.10;1.60;;;21.00;59.00;;;;;;5057182;28;20196;-44
2023/07/26 10:52:04;;;;;;;1.60;1.50;;;21.10;58.90;;;;;;5056689;28;20433;-44
2023/07/26 10:54:35;;;;;;;1.60;1.50;;;21.30;58.70;;;;;;5057400;28;20473;-45
2023/07/26 10:57:10;;;;;;;2.00;1.70;;;21.20;57.90;;;;;;5057064;28;20438;-44
2023/07/26 11:00:09;;;;;;;1.53;1.43;;;21.10;57.20;;;;;;5056938;28;20534;-44
2023/07/26 11:02:48;;;;;;;1.90;1.77;;;20.70;56.80;;;;;;5057289;28;20449;-44
2023/07/26 11:05:23;;;;;;;1.70;1.60;;;20.70;57.40;;;;;;5056970;28;20435;-45
2023/07/26 11:08:00;;;;;;;2.03;1.90;;;21.10;57.50;;;;;;5056416;28;20437;-44
2023/07/26 11:10:32;;;;;;;3.00;1.90;;;21.20;54.60;;;;;;5056707;28;20467;-44
2023/07/26 11:13:08;;;;;;;2.03;1.93;;;21.40;54.30;;;;;;5057302;28;20468;-45
2023/07/26 11:15:36;;;;;;;2.60;2.40;;;21.30;53.90;;;;;;5056860;28;20471;-44
2023/07/26 11:18:02;;;;;;;2.70;2.50;;;21.50;53.80;;;;;;5072536;28;20479;-44
2023/07/26 11:20:27;;;;;;;3.20;2.17;;;21.50;53.30;;;;;;5056265;28;20941;-44
2023/07/26 11:22:53;;;;;;;2.23;1.90;;;21.50;54.40;;;;;;5057353;28;20242;-44
2023/07/26 11:25:20;;;;;;;2.70;2.50;;;21.60;54.50;;;;;;5056559;28;20565;-44
2023/07/26 11:27:49;;;;;;;2.60;2.37;;;21.50;54.00;;;;;;5057272;28;20197;-44
2023/07/26 11:30:19;;;;;;;3.47;2.23;;;21.60;54.30;;;;;;5056387;28;20441;-45
2023/07/26 11:32:49;;;;;;;2.30;2.10;;;21.90;54.80;;;;;;5057255;28;20469;-45
2023/07/26 11:35:18;;;;;;;3.03;2.30;;;22.00;53.20;;;;;;5055399;28;20422;-45
2023/07/26 11:37:54;;;;;;;4.60;2.77;;;22.20;53.10;;;;;;5055189;28;20434;-44
2023/07/26 11:40:20;;;;;;;4.23;2.10;;;22.10;52.30;;;;;;5052939;28;20941;-44
2023/07/26 11:42:47;;;;;;;4.27;2.30;;;22.10;52.20;;;;;;5053621;28;20466;-44
2023/07/26 11:45:13;;;;;;;2.73;2.03;;;22.20;51.60;;;;;;5053354;28;20434;-44
2023/07/26 11:47:39;;;;;;;2.60;2.00;;;22.20;50.60;;;;;;5053826;28;20946;-44
2023/07/26 11:50:05;;;;;;;2.43;2.10;;;22.30;49.90;;;;;;5052764;28;20554;-44
2023/07/26 11:52:31;;;;;;;4.13;3.07;;;22.50;49.40;;;;;;5053530;28;20216;-44
2023/07/26 11:54:58;;;;;;;3.57;2.00;;;22.60;51.00;;;;;;5053206;28;20466;-44
2023/07/26 11:57:28;;;;;;;2.77;2.50;;;22.80;50.80;;;;;;5053716;28;20198;-44
2023/07/26 11:59:59;;;;;;;2.60;2.30;;;23.00;50.00;;;;;;5051588;28;20581;-45
2023/07/26 12:02:26;;;;;;;2.83;2.30;;;23.30;49.30;;;;;;5053291;28;20419;-45
2023/07/26 12:05:14;;;;;;;2.70;2.50;;;23.50;47.70;;;;;;5052798;28;20441;-45
2023/07/26 12:07:51;;;;;;;4.93;2.50;;;23.60;47.80;;;;;;5053407;28;20435;-45
2023/07/26 12:10:25;;;;;;;2.53;2.20;;;23.50;47.30;;;;;;5052373;28;20427;-44
2023/07/26 12:12:51;;;;;;;3.60;2.80;;;23.60;46.60;;;;;;5053536;28;20508;-45
2023/07/26 12:15:17;;;;;;;3.57;2.40;;;23.70;46.60;;;;;;5052398;28;20535;-46
2023/07/26 12:18:02;;;;;;;2.90;2.57;;;23.70;46.10;;;;;;5053289;28;20454;-44
2023/07/26 12:20:29;;;;;;;2.40;2.20;;;24.00;46.60;;;;;;5052309;28;20589;-44
2023/07/26 12:22:58;;;;;;;2.63;2.40;;;24.20;46.20;;;;;;5053388;28;20416;-45
2023/07/26 12:25:37;;;;;;;3.00;2.20;;;24.50;44.70;;;;;;5052511;28;20427;-44
2023/07/26 12:28:07;;;;;;;4.07;2.10;;;24.50;43.20;;;;;;5051606;28;20435;-44
2023/07/26 12:30:34;;;;;;;3.60;2.10;;;24.60;43.20;;;;;;5052233;28;20522;-45
2023/07/26 12:33:13;;;;;;;2.47;1.87;;;24.30;43.00;;;;;;5053038;28;20420;-44
2023/07/26 12:35:44;;;;;;;2.20;2.00;;;24.30;43.60;;;;;;5052581;28;20442;-45
2023/07/26 12:38:10;;;;;;;3.47;2.40;;;24.30;43.70;;;;;;5052615;28;20482;-44
2023/07/26 12:40:36;;;;;;;2.40;1.90;;;24.30;44.20;;;;;;5052025;28;20956;-44
2023/07/26 12:43:23;;;;;;;2.57;2.37;;;24.00;45.00;;;;;;5052729;28;20450;-45